Time;durP1;ratioP1;P1;durP2;ratioP2;P2;SDS_P1;SDS_P2;PMS_P1;PMS_P2;Temp;Humidity;BMP_temperature;BMP_pressure;BME280_temperature;BME280_humidity;BME280_pressure;Samples;Min_cycle;Max_cycle;Signal;HPM_P1;HPM_P2
2022/10/29 00:01:27;;;;;;;14.00;4.97;;;16.20;99.90;;;;;;4952587;28;20210;-62
2022/10/29 00:03:54;;;;;;;15.48;5.38;;;16.20;99.90;;;;;;4973033;28;20226;-61
2022/10/29 00:06:21;;;;;;;18.15;4.45;;;16.20;99.90;;;;;;4985379;28;20191;-61
2022/10/29 00:08:49;;;;;;;11.45;5.20;;;16.20;99.90;;;;;;4958004;28;20407;-61
2022/10/29 00:11:18;;;;;;;14.90;4.75;;;16.10;99.90;;;;;;4975462;28;20223;-62
2022/10/29 00:13:46;;;;;;;13.02;5.28;;;16.10;99.90;;;;;;4972237;28;21817;-62
2022/10/29 00:16:16;;;;;;;15.23;4.82;;;16.10;99.90;;;;;;4970493;28;20211;-62
2022/10/29 00:18:43;;;;;;;16.42;5.30;;;16.10;99.90;;;;;;4945549;28;20658;-61
2022/10/29 00:21:13;;;;;;;12.85;5.43;;;16.10;99.90;;;;;;4964992;28;20241;-61
2022/10/29 00:23:40;;;;;;;10.43;5.03;;;16.10;99.90;;;;;;4956676;28;20256;-61
2022/10/29 00:26:09;;;;;;;15.70;4.68;;;16.10;99.90;;;;;;4970793;28;20229;-61
2022/10/29 00:28:35;;;;;;;18.15;4.65;;;16.10;99.90;;;;;;4968371;28;20249;-61
2022/10/29 00:31:04;;;;;;;17.08;4.93;;;15.90;99.90;;;;;;4969800;28;20218;-62
2022/10/29 00:33:31;;;;;;;15.73;4.97;;;16.00;99.90;;;;;;4944318;28;20265;-62
2022/10/29 00:35:59;;;;;;;8.98;4.65;;;16.00;99.90;;;;;;4975207;28;20207;-62
2022/10/29 00:38:26;;;;;;;9.90;4.30;;;15.00;99.90;;;;;;4964391;28;20217;-62
2022/10/29 00:40:54;;;;;;;9.30;4.60;;;16.00;99.90;;;;;;4943797;28;20202;-61
2022/10/29 00:43:24;;;;;;;15.45;4.90;;;16.00;99.90;;;;;;4980790;28;20708;-62
2022/10/29 00:45:54;;;;;;;13.85;4.55;;;16.00;99.90;;;;;;4964512;28;20546;-62
2022/10/29 00:48:23;;;;;;;11.20;4.78;;;15.90;99.90;;;;;;4955578;28;20837;-61
2022/10/29 00:50:51;;;;;;;10.68;4.57;;;15.90;99.90;;;;;;4963013;28;20601;-61
2022/10/29 00:53:22;;;;;;;9.13;4.03;;;15.90;99.90;;;;;;4963512;28;20241;-61
2022/10/29 00:55:49;;;;;;;18.52;5.63;;;15.90;99.90;;;;;;4952811;28;20234;-61
2022/10/29 00:58:16;;;;;;;16.63;4.22;;;15.80;99.90;;;;;;4969643;28;20198;-61
2022/10/29 01:00:44;;;;;;;14.63;4.93;;;15.80;99.90;;;;;;4979467;28;20207;-62
2022/10/29 01:03:11;;;;;;;15.43;4.63;;;15.80;99.90;;;;;;4966908;28;20680;-64
2022/10/29 01:05:39;;;;;;;13.85;4.47;;;15.80;99.90;;;;;;4944105;28;20899;-63
2022/10/29 01:08:06;;;;;;;13.45;5.53;;;15.70;99.90;;;;;;4967062;28;20684;-63
2022/10/29 01:10:51;;;;;;;14.68;4.95;;;15.70;99.90;;;;;;4959541;28;20532;-63
2022/10/29 01:13:32;;;;;;;14.02;4.88;;;15.80;99.90;;;;;;4965978;28;20230;-63
2022/10/29 01:16:09;;;;;;;10.82;4.78;;;15.80;99.90;;;;;;4981192;28;21060;-63
2022/10/29 01:18:41;;;;;;;16.25;4.70;;;15.80;99.90;;;;;;4962035;28;20206;-64
2022/10/29 01:21:37;;;;;;;14.20;5.07;;;15.80;99.90;;;;;;4954554;28;20235;-64
2022/10/29 01:24:42;;;;;;;10.40;4.53;;;15.70;99.90;;;;;;4962048;28;20328;-64
2022/10/29 01:27:55;;;;;;;13.35;5.20;;;15.80;99.90;;;;;;4958126;28;21099;-63
2022/10/29 01:30:37;;;;;;;14.77;4.22;;;15.80;99.90;;;;;;4970975;28;20463;-63
2022/10/29 01:33:13;;;;;;;14.55;5.30;;;15.80;99.90;;;;;;4964195;28;22808;-64
2022/10/29 01:35:49;;;;;;;13.00;5.18;;;15.80;99.90;;;;;;4970519;28;20223;-63
2022/10/29 01:38:24;;;;;;;10.45;4.68;;;15.80;99.90;;;;;;4928987;28;20211;-64
2022/10/29 01:40:59;;;;;;;15.90;4.53;;;15.80;99.90;;;;;;4977454;28;20226;-63
2022/10/29 01:43:33;;;;;;;12.68;4.65;;;15.80;99.90;;;;;;4941102;28;20206;-64
2022/10/29 01:46:06;;;;;;;18.63;5.30;;;15.80;99.90;;;;;;4974345;28;20218;-63
2022/10/29 01:48:39;;;;;;;15.23;6.53;;;15.80;99.90;;;;;;4963510;28;20227;-63
2022/10/29 01:51:10;;;;;;;19.48;5.47;;;15.80;99.90;;;;;;4958051;28;20235;-63
2022/10/29 01:53:38;;;;;;;21.42;5.60;;;15.70;99.90;;;;;;4949388;28;20234;-63
2022/10/29 01:56:05;;;;;;;13.80;4.78;;;15.60;99.90;;;;;;4968826;28;20210;-63
2022/10/29 01:58:35;;;;;;;15.63;5.20;;;15.60;99.90;;;;;;4952200;28;20234;-63
2022/10/29 02:01:09;;;;;;;13.27;5.60;;;15.70;99.90;;;;;;4976961;28;20222;-64
2022/10/29 02:03:46;;;;;;;15.55;5.47;;;15.70;99.90;;;;;;4965857;28;20235;-64
2022/10/29 02:06:21;;;;;;;15.05;5.85;;;15.60;99.90;;;;;;4968240;28;20297;-63
2022/10/29 02:08:56;;;;;;;10.93;5.13;;;15.50;99.90;;;;;;4953530;28;20202;-64
2022/10/29 02:11:27;;;;;;;22.25;5.63;;;15.60;99.90;;;;;;4976127;28;20230;-64
2022/10/29 02:13:58;;;;;;;13.30;4.97;;;15.50;99.90;;;;;;4953570;28;20634;-63
2022/10/29 02:16:26;;;;;;;13.10;5.20;;;15.50;99.90;;;;;;4965911;28;20203;-63
2022/10/29 02:18:56;;;;;;;21.25;6.20;;;15.60;99.90;;;;;;4976447;28;20210;-63
2022/10/29 02:21:22;;;;;;;18.17;6.18;;;15.50;99.90;;;;;;4972251;28;20222;-63
2022/10/29 02:23:50;;;;;;;11.38;4.75;;;15.50;99.90;;;;;;4937118;28;20233;-63
2022/10/29 02:26:17;;;;;;;17.02;5.85;;;15.50;99.90;;;;;;4965496;28;20734;-64
2022/10/29 02:28:44;;;;;;;21.35;6.80;;;15.50;99.90;;;;;;4941013;28;20207;-63
2022/10/29 02:31:10;;;;;;;18.00;6.63;;;15.50;99.90;;;;;;4970462;28;20644;-64
2022/10/29 02:33:37;;;;;;;15.60;6.00;;;15.50;99.90;;;;;;4975310;28;20263;-63
2022/10/29 02:36:07;;;;;;;17.38;5.70;;;15.50;99.90;;;;;;4962534;28;20333;-64
2022/10/29 02:38:33;;;;;;;19.52;7.45;;;15.50;99.90;;;;;;4967491;28;20214;-63
2022/10/29 02:41:00;;;;;;;14.40;6.05;;;15.50;99.90;;;;;;4960562;28;20401;-63
2022/10/29 02:43:27;;;;;;;22.25;6.78;;;15.50;99.90;;;;;;4941638;28;20199;-63
2022/10/29 02:46:13;;;;;;;11.60;5.78;;;15.30;99.90;;;;;;4953283;28;20813;-64
2022/10/29 02:48:39;;;;;;;13.13;6.15;;;15.30;99.90;;;;;;4975745;28;20203;-63
2022/10/29 02:51:08;;;;;;;15.68;6.30;;;15.30;99.90;;;;;;4960812;28;20308;-64
2022/10/29 02:53:35;;;;;;;17.92;6.57;;;15.30;99.90;;;;;;4959748;28;20242;-63
2022/10/29 02:56:01;;;;;;;17.15;6.22;;;15.30;99.90;;;;;;4953165;28;20206;-63
2022/10/29 02:58:28;;;;;;;15.55;6.35;;;15.40;99.90;;;;;;4964048;28;21491;-63
2022/10/29 03:00:55;;;;;;;13.95;6.47;;;15.40;99.90;;;;;;4933849;28;20895;-64
2022/10/29 03:03:22;;;;;;;20.77;6.85;;;15.40;99.90;;;;;;4976637;28;20199;-63
2022/10/29 03:05:49;;;;;;;20.70;7.10;;;15.40;99.90;;;;;;4978564;28;20218;-63
2022/10/29 03:08:17;;;;;;;24.50;7.13;;;15.40;99.90;;;;;;4949989;28;20618;-63
2022/10/29 03:10:44;;;;;;;22.20;7.70;;;15.40;99.90;;;;;;4949249;28;20998;-63
2022/10/29 03:13:11;;;;;;;18.58;6.40;;;15.50;99.90;;;;;;4964963;28;21158;-63
2022/10/29 03:15:38;;;;;;;15.35;7.90;;;15.50;99.90;;;;;;4943367;28;20216;-63
2022/10/29 03:18:05;;;;;;;23.20;6.57;;;15.60;99.90;;;;;;4975167;28;20207;-63
2022/10/29 03:20:32;;;;;;;16.45;7.70;;;15.50;99.90;;;;;;4984124;28;20734;-63
2022/10/29 03:22:59;;;;;;;21.42;8.50;;;15.50;99.90;;;;;;4962997;28;20219;-64
2022/10/29 03:25:27;;;;;;;22.52;8.30;;;15.60;99.90;;;;;;4949911;28;20203;-63
2022/10/29 03:27:53;;;;;;;21.00;8.10;;;15.60;99.90;;;;;;4962566;28;20226;-64
2022/10/29 03:30:20;;;;;;;23.15;7.63;;;15.50;99.90;;;;;;4981446;28;20204;-63
2022/10/29 03:32:48;;;;;;;28.42;8.50;;;15.60;99.90;;;;;;4961043;28;20241;-63
2022/10/29 03:35:16;;;;;;;15.13;7.00;;;15.60;99.90;;;;;;4985177;28;20973;-63
2022/10/29 03:37:43;;;;;;;23.10;7.68;;;15.60;99.90;;;;;;4971351;28;20576;-63
2022/10/29 03:40:10;;;;;;;24.13;8.40;;;15.70;99.90;;;;;;4977376;28;20204;-63
2022/10/29 03:42:39;;;;;;;19.10;7.78;;;15.60;99.90;;;;;;4945608;28;20215;-63
2022/10/29 03:45:07;;;;;;;15.65;7.20;;;15.70;99.90;;;;;;4972523;28;20922;-64
2022/10/29 03:47:33;;;;;;;15.13;7.30;;;15.60;99.90;;;;;;4965359;28;20210;-64
2022/10/29 03:50:00;;;;;;;19.90;6.97;;;15.60;99.90;;;;;;4977782;28;20210;-63
2022/10/29 03:52:27;;;;;;;13.32;6.72;;;15.60;99.90;;;;;;4981174;28;20215;-64
2022/10/29 03:54:54;;;;;;;29.70;8.00;;;15.60;99.90;;;;;;4984685;28;20208;-64
2022/10/29 03:57:21;;;;;;;21.27;7.00;;;15.50;99.90;;;;;;4937363;28;20709;-64
2022/10/29 03:59:49;;;;;;;20.00;7.60;;;15.50;99.90;;;;;;4974756;28;20710;-63
2022/10/29 04:02:16;;;;;;;24.00;7.47;;;15.60;99.90;;;;;;4957517;28;20280;-63
2022/10/29 04:04:43;;;;;;;25.10;7.55;;;15.60;99.90;;;;;;4971905;28;20231;-63
2022/10/29 04:07:09;;;;;;;19.00;6.95;;;15.60;99.90;;;;;;4980538;28;20214;-63
2022/10/29 04:09:36;;;;;;;19.30;7.57;;;15.50;99.90;;;;;;4979030;28;20211;-64
2022/10/29 04:12:03;;;;;;;20.13;7.28;;;15.60;99.90;;;;;;4931568;28;20277;-64
2022/10/29 04:14:30;;;;;;;12.75;7.03;;;15.70;99.90;;;;;;4972896;28;20222;-63
2022/10/29 04:16:59;;;;;;;21.92;7.60;;;15.70;99.90;;;;;;4957849;28;20207;-64
2022/10/29 04:19:26;;;;;;;24.20;8.25;;;15.70;99.90;;;;;;4958971;28;20637;-65
2022/10/29 04:21:53;;;;;;;18.77;8.00;;;15.70;99.90;;;;;;4977505;28;20199;-63
2022/10/29 04:24:19;;;;;;;21.90;7.78;;;15.70;99.90;;;;;;4965524;28;20290;-63
2022/10/29 04:26:46;;;;;;;19.60;7.68;;;15.70;99.90;;;;;;4973207;28;20195;-63
2022/10/29 04:29:13;;;;;;;19.83;7.88;;;15.70;99.90;;;;;;4939227;28;23728;-64
2022/10/29 04:31:40;;;;;;;14.57;7.55;;;15.70;99.90;;;;;;4963796;28;20199;-64
2022/10/29 04:34:08;;;;;;;16.20;7.13;;;15.70;99.90;;;;;;4950478;28;20479;-63
2022/10/29 04:36:34;;;;;;;13.63;6.97;;;15.70;99.90;;;;;;4965753;28;20667;-64
2022/10/29 04:39:01;;;;;;;17.02;7.15;;;15.70;99.90;;;;;;4973199;28;21143;-64
2022/10/29 04:41:28;;;;;;;22.00;7.05;;;15.70;99.90;;;;;;4972145;28;20709;-63
2022/10/29 04:43:55;;;;;;;24.35;7.68;;;15.70;99.90;;;;;;4948689;28;20206;-64
2022/10/29 04:46:22;;;;;;;19.67;8.88;;;15.70;99.90;;;;;;4962540;28;20208;-63
2022/10/29 04:48:48;;;;;;;19.42;7.22;;;15.60;99.90;;;;;;4960485;28;20254;-64
2022/10/29 04:51:21;;;;;;;25.60;7.38;;;15.70;99.90;;;;;;4978347;28;21595;-63
2022/10/29 04:53:48;;;;;;;15.82;7.00;;;15.70;99.90;;;;;;4984438;28;20227;-63
2022/10/29 04:56:15;;;;;;;19.05;7.00;;;15.70;99.90;;;;;;4962355;28;20208;-63
2022/10/29 04:58:42;;;;;;;14.43;6.45;;;15.70;99.90;;;;;;4978295;28;20199;-64
2022/10/29 05:01:09;;;;;;;18.50;7.32;;;15.70;99.90;;;;;;4934715;28;20234;-64
2022/10/29 05:03:36;;;;;;;20.13;6.72;;;15.70;99.90;;;;;;4950607;28;20905;-65
2022/10/29 05:06:03;;;;;;;12.38;6.28;;;15.70;99.90;;;;;;4979127;28;20199;-64
2022/10/29 05:08:32;;;;;;;17.38;6.35;;;15.70;99.90;;;;;;4967347;28;20331;-64
2022/10/29 05:11:02;;;;;;;16.35;6.95;;;15.60;99.90;;;;;;4983847;28;20657;-63
2022/10/29 05:13:29;;;;;;;15.55;7.10;;;15.60;99.90;;;;;;4968783;28;20849;-63
2022/10/29 05:15:55;;;;;;;19.85;7.95;;;15.60;99.90;;;;;;4943245;28;20218;-64
2022/10/29 05:18:22;;;;;;;20.67;6.85;;;15.60;99.90;;;;;;4967714;28;20311;-64
2022/10/29 05:20:53;;;;;;;17.50;6.63;;;15.60;99.90;;;;;;4958180;28;20234;-63
2022/10/29 05:23:19;;;;;;;24.55;7.97;;;15.60;99.90;;;;;;4977758;28;20227;-63
2022/10/29 05:25:50;;;;;;;17.90;6.85;;;15.60;99.90;;;;;;4981986;28;20214;-63
2022/10/29 05:28:19;;;;;;;16.73;6.72;;;15.50;99.90;;;;;;4962836;28;20218;-63
2022/10/29 05:30:47;;;;;;;18.10;6.40;;;15.60;99.90;;;;;;4979951;28;20775;-63
2022/10/29 05:33:16;;;;;;;12.25;6.10;;;15.60;99.90;;;;;;4952902;28;20309;-63
2022/10/29 05:35:43;;;;;;;15.68;6.65;;;15.50;99.90;;;;;;4944489;28;20202;-64
2022/10/29 05:38:11;;;;;;;16.65;6.22;;;15.60;99.90;;;;;;4977654;28;20202;-64
2022/10/29 05:40:39;;;;;;;17.70;7.57;;;15.60;99.90;;;;;;4959492;28;20787;-64
2022/10/29 05:43:07;;;;;;;20.98;7.10;;;15.50;99.90;;;;;;4974662;28;20219;-63
2022/10/29 05:45:33;;;;;;;16.60;7.47;;;15.50;99.90;;;;;;4970699;28;20679;-63
2022/10/29 05:48:02;;;;;;;15.32;6.78;;;15.50;99.90;;;;;;4957275;28;20207;-63
2022/10/29 05:50:30;;;;;;;18.23;7.53;;;15.50;99.90;;;;;;4948706;28;20229;-63
2022/10/29 05:52:58;;;;;;;17.73;6.68;;;15.50;99.90;;;;;;4938214;28;20226;-64
2022/10/29 05:55:26;;;;;;;20.92;6.75;;;15.50;99.90;;;;;;4955591;28;20732;-64
2022/10/29 05:57:56;;;;;;;15.95;8.00;;;15.50;99.90;;;;;;4981546;28;20202;-64
2022/10/29 06:00:24;;;;;;;29.52;8.63;;;15.50;99.90;;;;;;4953486;28;20321;-64
2022/10/29 06:02:51;;;;;;;25.65;7.45;;;15.50;99.90;;;;;;4921800;28;20199;-64
2022/10/29 06:05:17;;;;;;;17.40;6.60;;;15.50;99.90;;;;;;4959988;28;20207;-63
2022/10/29 06:07:44;;;;;;;18.70;6.90;;;15.50;99.90;;;;;;4952314;28;20223;-64
2022/10/29 06:10:11;;;;;;;13.00;6.50;;;15.40;99.90;;;;;;4979604;28;20207;-63
2022/10/29 06:12:38;;;;;;;18.05;6.25;;;15.40;99.90;;;;;;4983557;28;20209;-65
2022/10/29 06:15:06;;;;;;;19.55;6.50;;;15.30;99.90;;;;;;4963180;28;20206;-64
2022/10/29 06:17:34;;;;;;;15.00;7.00;;;15.30;99.90;;;;;;4968959;28;20202;-64
2022/10/29 06:20:01;;;;;;;14.30;5.85;;;15.20;99.90;;;;;;4958247;28;20728;-63
2022/10/29 06:22:27;;;;;;;19.15;7.57;;;15.20;99.90;;;;;;4958578;28;20206;-63
2022/10/29 06:24:54;;;;;;;16.55;6.53;;;15.00;99.90;;;;;;4939978;28;20367;-64
2022/10/29 06:27:21;;;;;;;17.00;6.53;;;14.90;99.90;;;;;;4952984;28;20622;-63
2022/10/29 06:29:48;;;;;;;14.50;6.50;;;15.00;99.90;;;;;;4953479;28;20200;-64
2022/10/29 06:32:15;;;;;;;15.18;6.40;;;14.90;99.90;;;;;;4970430;28;20203;-63
2022/10/29 06:34:43;;;;;;;16.02;7.63;;;14.80;99.90;;;;;;4954726;28;20230;-64
2022/10/29 06:37:10;;;;;;;12.35;6.90;;;14.70;99.90;;;;;;4953699;28;20237;-63
2022/10/29 06:39:36;;;;;;;16.23;6.60;;;14.80;99.90;;;;;;4941215;28;20802;-63
2022/10/29 06:42:03;;;;;;;14.32;7.20;;;14.80;99.90;;;;;;4967931;28;20196;-64
2022/10/29 06:44:30;;;;;;;16.65;6.75;;;14.70;99.90;;;;;;4946540;28;20234;-63
2022/10/29 06:46:57;;;;;;;15.23;6.65;;;14.70;99.90;;;;;;4956743;28;20231;-64
2022/10/29 06:49:24;;;;;;;9.10;5.50;;;14.70;99.90;;;;;;4938386;28;21757;-63
2022/10/29 06:51:52;;;;;;;13.18;5.43;;;14.70;99.90;;;;;;4975228;28;20449;-64
2022/10/29 06:54:19;;;;;;;18.92;5.13;;;14.50;99.90;;;;;;4958283;28;21179;-63
2022/10/29 06:56:46;;;;;;;16.35;4.88;;;14.50;99.90;;;;;;4965429;28;20202;-63
2022/10/29 06:59:12;;;;;;;90.82;5.95;;;14.30;99.90;;;;;;4974299;28;20210;-63
2022/10/29 07:01:39;;;;;;;5.50;4.47;;;14.20;99.90;;;;;;4948475;28;20210;-64
2022/10/29 07:04:06;;;;;;;12.23;7.38;;;14.20;99.90;;;;;;4978257;28;20203;-64
2022/10/29 07:06:34;;;;;;;9.27;7.50;;;14.10;99.90;;;;;;4952852;28;20207;-63
2022/10/29 07:09:02;;;;;;;12.77;7.82;;;14.10;99.90;;;;;;4959758;28;21007;-63
2022/10/29 07:11:29;;;;;;;7.72;5.30;;;14.20;99.90;;;;;;4952436;28;20207;-63
2022/10/29 07:13:56;;;;;;;10.20;4.93;;;14.20;99.90;;;;;;4958764;28;20234;-64
2022/10/29 07:16:23;;;;;;;6.63;4.90;;;14.00;99.90;;;;;;4962519;28;20203;-64
2022/10/29 07:18:50;;;;;;;12.18;7.18;;;14.00;99.90;;;;;;4963581;28;20229;-64
2022/10/29 07:21:16;;;;;;;7.53;5.35;;;14.00;99.90;;;;;;4944106;28;20231;-63
2022/10/29 07:23:43;;;;;;;7.93;4.38;;;14.00;99.90;;;;;;4953824;28;20226;-63
2022/10/29 07:26:11;;;;;;;8.00;4.65;;;14.00;99.90;;;;;;4943175;28;21020;-63
2022/10/29 07:28:38;;;;;;;5.95;4.88;;;14.10;99.90;;;;;;4968143;28;20233;-63
2022/10/29 07:31:06;;;;;;;6.18;5.30;;;14.10;99.90;;;;;;4953045;28;20535;-63
2022/10/29 07:33:33;;;;;;;6.55;4.90;;;14.10;99.90;;;;;;4971347;28;20321;-64
2022/10/29 07:36:00;;;;;;;4.57;4.18;;;14.10;99.90;;;;;;4936173;28;20223;-63
2022/10/29 07:38:27;;;;;;;7.03;4.63;;;14.10;99.90;;;;;;4961332;28;20238;-63
2022/10/29 07:40:54;;;;;;;4.97;4.43;;;14.10;99.90;;;;;;4951778;28;20237;-63
2022/10/29 07:43:22;;;;;;;6.57;4.00;;;14.10;99.90;;;;;;4952021;28;20230;-64
2022/10/29 07:45:50;;;;;;;9.70;4.35;;;14.10;99.90;;;;;;4943706;28;20226;-64
2022/10/29 07:48:18;;;;;;;16.10;8.05;;;14.00;99.90;;;;;;4969973;28;20215;-63
2022/10/29 07:50:45;;;;;;;9.55;4.80;;;13.90;99.90;;;;;;4940431;28;20573;-64
2022/10/29 07:53:12;;;;;;;6.72;5.10;;;13.90;99.90;;;;;;4953680;28;20211;-64
2022/10/29 07:55:38;;;;;;;39.95;5.55;;;14.00;99.90;;;;;;4958911;28;20223;-64
2022/10/29 07:58:07;;;;;;;5.97;5.18;;;13.80;99.90;;;;;;4949891;28;20210;-63
2022/10/29 08:00:36;;;;;;;7.03;4.93;;;14.10;99.90;;;;;;4970632;28;20230;-63
2022/10/29 08:03:04;;;;;;;6.97;5.78;;;14.20;99.90;;;;;;4950922;28;20207;-64
2022/10/29 08:05:31;;;;;;;7.30;6.25;;;14.30;99.90;;;;;;4971297;28;20230;-63
2022/10/29 08:07:58;;;;;;;7.63;6.07;;;14.40;99.90;;;;;;4954287;28;20735;-63
2022/10/29 08:10:26;;;;;;;13.30;8.20;;;14.50;99.90;;;;;;4967475;28;21044;-64
2022/10/29 08:12:54;;;;;;;15.80;10.55;;;14.60;99.90;;;;;;4956180;28;20230;-63
2022/10/29 08:15:22;;;;;;;13.88;8.82;;;14.60;99.90;;;;;;4960634;28;20452;-63
2022/10/29 08:17:51;;;;;;;14.45;8.13;;;14.80;99.90;;;;;;4952018;28;20230;-64
2022/10/29 08:20:19;;;;;;;17.63;7.32;;;14.70;99.90;;;;;;4958368;28;20349;-63
2022/10/29 08:22:46;;;;;;;11.60;7.72;;;14.80;99.90;;;;;;4926859;28;20230;-63
2022/10/29 08:25:14;;;;;;;13.10;7.40;;;14.90;99.90;;;;;;4959155;28;20257;-63
2022/10/29 08:27:42;;;;;;;12.48;6.50;;;14.90;99.90;;;;;;4956170;28;20250;-64
2022/10/29 08:30:12;;;;;;;17.58;7.95;;;15.00;99.90;;;;;;4939564;28;21000;-63
2022/10/29 08:32:45;;;;;;;13.32;7.03;;;15.00;99.90;;;;;;4971920;28;20223;-63
2022/10/29 08:35:13;;;;;;;14.93;7.53;;;15.00;99.90;;;;;;4966422;28;20701;-64
2022/10/29 08:37:42;;;;;;;14.23;7.30;;;15.00;99.90;;;;;;4936892;28;20227;-64
2022/10/29 08:40:16;;;;;;;12.85;7.00;;;15.00;99.90;;;;;;4963334;28;20285;-63
2022/10/29 08:42:51;;;;;;;10.95;7.60;;;15.10;99.90;;;;;;4977387;28;20226;-63
2022/10/29 08:45:25;;;;;;;13.93;7.72;;;15.10;99.90;;;;;;4953228;28;20237;-63
2022/10/29 08:48:12;;;;;;;13.98;7.88;;;15.10;99.90;;;;;;4970521;28;20229;-63
2022/10/29 08:50:44;;;;;;;17.67;8.43;;;15.10;99.90;;;;;;4967614;28;20223;-63
2022/10/29 08:53:17;;;;;;;16.15;8.50;;;15.20;99.90;;;;;;4948044;28;20801;-63
2022/10/29 08:55:45;;;;;;;13.45;8.32;;;15.30;99.90;;;;;;4965012;28;20325;-63
2022/10/29 08:58:23;;;;;;;17.98;9.15;;;15.40;99.90;;;;;;4967830;28;20242;-63
2022/10/29 09:00:55;;;;;;;17.45;9.80;;;15.40;99.90;;;;;;4959500;28;20226;-63
2022/10/29 09:03:24;;;;;;;17.33;8.95;;;15.50;99.90;;;;;;4971518;28;20242;-63
2022/10/29 09:06:00;;;;;;;15.80;9.48;;;15.50;99.90;;;;;;4981613;28;20222;-63
2022/10/29 09:08:39;;;;;;;19.17;9.35;;;15.60;99.90;;;;;;4953578;28;20499;-64
2022/10/29 09:11:16;;;;;;;17.73;9.60;;;15.70;99.90;;;;;;4961463;28;20223;-64
2022/10/29 09:13:50;;;;;;;20.60;10.68;;;15.70;99.90;;;;;;4980979;28;20207;-63
2022/10/29 09:16:29;;;;;;;20.90;10.30;;;15.80;99.90;;;;;;4954231;28;20413;-64
2022/10/29 09:19:11;;;;;;;19.85;10.77;;;15.90;99.90;;;;;;4962483;28;20214;-63
2022/10/29 09:21:49;;;;;;;19.27;11.82;;;15.90;99.90;;;;;;4983145;28;20219;-63
2022/10/29 09:24:23;;;;;;;25.33;11.32;;;16.00;99.90;;;;;;4956104;28;20376;-63
2022/10/29 09:26:57;;;;;;;26.85;10.98;;;16.00;99.90;;;;;;4967828;28;20206;-63
2022/10/29 09:29:37;;;;;;;18.55;9.75;;;16.00;99.90;;;;;;4978498;28;20202;-63
2022/10/29 09:32:09;;;;;;;16.60;9.38;;;16.00;99.90;;;;;;4952150;28;20608;-63
2022/10/29 09:34:42;;;;;;;15.27;9.45;;;15.90;99.90;;;;;;4965741;28;20218;-63
2022/10/29 09:37:16;;;;;;;21.40;9.00;;;16.00;99.90;;;;;;4980350;28;20207;-63
2022/10/29 09:39:46;;;;;;;20.85;10.30;;;15.90;99.90;;;;;;4962875;28;20211;-63
2022/10/29 09:42:17;;;;;;;17.52;9.63;;;16.00;99.90;;;;;;4962122;28;20206;-63
2022/10/29 09:44:52;;;;;;;29.77;10.00;;;16.00;99.90;;;;;;4981730;28;20253;-63
2022/10/29 09:47:28;;;;;;;25.98;10.65;;;16.10;99.90;;;;;;4964507;28;20210;-63
2022/10/29 09:50:02;;;;;;;17.88;9.70;;;16.10;99.90;;;;;;4986299;28;20207;-64
2022/10/29 09:52:33;;;;;;;20.15;9.05;;;16.10;99.90;;;;;;4984685;28;20217;-63
2022/10/29 09:55:02;;;;;;;16.58;8.43;;;16.10;99.90;;;;;;4969138;28;20230;-64
2022/10/29 09:57:33;;;;;;;16.25;8.70;;;16.10;99.90;;;;;;4975279;28;20206;-63
2022/10/29 10:00:02;;;;;;;16.58;9.27;;;16.20;99.90;;;;;;4968891;28;20215;-63
2022/10/29 10:02:35;;;;;;;16.98;9.05;;;16.20;99.90;;;;;;4958285;28;20203;-63
2022/10/29 10:05:05;;;;;;;14.48;9.63;;;16.20;99.90;;;;;;4981652;28;20209;-63
2022/10/29 10:07:34;;;;;;;15.38;8.77;;;16.20;99.90;;;;;;4970637;28;20200;-63
2022/10/29 10:10:02;;;;;;;29.13;10.40;;;16.30;99.90;;;;;;4970258;28;20564;-64
2022/10/29 10:12:44;;;;;;;19.30;9.63;;;16.20;99.90;;;;;;4971321;28;20612;-63
2022/10/29 10:15:19;;;;;;;19.13;10.30;;;16.30;99.90;;;;;;4965077;28;20222;-63
2022/10/29 10:18:01;;;;;;;23.73;9.25;;;16.30;99.90;;;;;;4958106;28;20206;-63
2022/10/29 10:20:34;;;;;;;21.20;10.45;;;16.40;99.90;;;;;;4976896;28;20442;-63
2022/10/29 10:23:19;;;;;;;21.30;11.02;;;16.40;99.90;;;;;;4957366;28;20229;-63
2022/10/29 10:25:45;;;;;;;22.08;9.73;;;16.30;99.90;;;;;;4962820;28;20210;-64
2022/10/29 10:28:17;;;;;;;24.60;9.57;;;16.50;99.90;;;;;;4981182;28;20205;-63
2022/10/29 10:30:45;;;;;;;17.38;9.73;;;16.40;99.90;;;;;;4973549;28;20199;-63
2022/10/29 10:33:24;;;;;;;22.75;9.55;;;16.40;99.90;;;;;;4959961;28;21094;-63
2022/10/29 10:35:53;;;;;;;19.88;10.80;;;16.40;99.90;;;;;;4987578;28;20230;-62
2022/10/29 10:38:21;;;;;;;22.23;10.40;;;16.40;99.90;;;;;;4969046;28;20254;-63
2022/10/29 10:40:56;;;;;;;17.80;10.50;;;16.40;99.90;;;;;;4979393;28;20242;-63
2022/10/29 10:43:25;;;;;;;24.92;9.98;;;16.40;99.90;;;;;;4966836;28;20483;-63
2022/10/29 10:45:57;;;;;;;24.25;10.85;;;16.50;99.90;;;;;;4957920;28;20235;-63
2022/10/29 10:48:27;;;;;;;21.33;10.90;;;16.50;99.90;;;;;;4978046;28;20214;-64
2022/10/29 10:51:15;;;;;;;22.70;10.77;;;16.50;99.90;;;;;;4960643;28;20238;-64
2022/10/29 10:53:44;;;;;;;20.63;10.18;;;16.50;99.90;;;;;;4968199;28;20258;-64
2022/10/29 10:56:18;;;;;;;22.00;11.55;;;16.50;99.90;;;;;;4980674;28;20223;-64
2022/10/29 10:58:53;;;;;;;23.45;11.45;;;16.50;99.90;;;;;;4953686;28;22463;-64
2022/10/29 11:01:24;;;;;;;23.42;11.85;;;16.60;99.90;;;;;;4958098;28;20223;-64
2022/10/29 11:03:58;;;;;;;20.65;11.40;;;16.50;99.90;;;;;;4976177;28;20225;-64
2022/10/29 11:06:29;;;;;;;21.80;12.95;;;16.50;99.90;;;;;;4973297;28;20209;-65
2022/10/29 11:09:04;;;;;;;29.58;12.85;;;16.70;99.90;;;;;;4971959;28;20593;-64
2022/10/29 11:11:35;;;;;;;17.98;11.45;;;16.70;99.90;;;;;;4983179;28;20217;-64
2022/10/29 11:14:09;;;;;;;17.17;11.10;;;16.70;99.90;;;;;;4963354;28;20202;-64
2022/10/29 11:16:41;;;;;;;22.42;12.07;;;16.60;99.90;;;;;;4965259;28;20552;-64
2022/10/29 11:19:18;;;;;;;22.63;12.23;;;16.70;99.90;;;;;;4977312;28;20683;-64
2022/10/29 11:21:54;;;;;;;22.33;11.63;;;16.70;99.90;;;;;;4959003;28;20233;-64
2022/10/29 11:24:27;;;;;;;15.50;10.38;;;16.70;99.90;;;;;;4966519;28;20207;-64
2022/10/29 11:27:00;;;;;;;23.10;11.73;;;16.70;99.90;;;;;;4979515;28;20223;-63
2022/10/29 11:29:38;;;;;;;19.38;10.80;;;16.70;99.90;;;;;;4959576;28;20210;-63
2022/10/29 11:32:12;;;;;;;23.90;11.73;;;16.70;99.90;;;;;;4960195;28;20225;-64
2022/10/29 11:34:45;;;;;;;17.70;10.05;;;16.70;99.90;;;;;;4981059;28;20439;-64
2022/10/29 11:37:20;;;;;;;21.88;9.85;;;16.70;99.90;;;;;;4962612;28;20219;-63
2022/10/29 11:39:54;;;;;;;19.42;9.85;;;16.80;99.90;;;;;;4975384;28;20198;-63
2022/10/29 11:42:21;;;;;;;24.25;10.45;;;16.80;99.90;;;;;;4977095;28;20221;-63
2022/10/29 11:44:48;;;;;;;18.67;9.68;;;16.90;99.90;;;;;;4958176;28;20749;-64
2022/10/29 11:47:33;;;;;;;21.15;9.57;;;16.90;99.90;;;;;;4967660;28;20243;-63
2022/10/29 11:50:11;;;;;;;15.27;9.05;;;16.90;99.90;;;;;;4960951;28;21276;-63
2022/10/29 11:52:47;;;;;;;20.55;9.68;;;16.90;99.90;;;;;;4946948;28;20714;-63
2022/10/29 11:55:30;;;;;;;21.33;9.25;;;17.00;99.90;;;;;;4973442;28;20238;-64
2022/10/29 11:58:01;;;;;;;16.73;8.90;;;17.00;99.90;;;;;;4975180;28;20431;-63
2022/10/29 12:00:34;;;;;;;13.77;9.02;;;17.00;99.90;;;;;;4956925;28;20249;-63
2022/10/29 12:03:22;;;;;;;15.75;9.73;;;17.00;99.90;;;;;;4979002;28;20283;-63
2022/10/29 12:06:02;;;;;;;22.00;9.15;;;17.00;99.90;;;;;;4963901;28;20194;-64
2022/10/29 12:08:47;;;;;;;19.38;9.77;;;17.00;99.90;;;;;;4930963;28;20241;-63
2022/10/29 12:11:22;;;;;;;15.48;8.40;;;17.00;99.90;;;;;;4974739;28;20231;-65
2022/10/29 12:14:00;;;;;;;14.70;8.63;;;17.00;99.90;;;;;;4962066;28;20198;-64
2022/10/29 12:16:36;;;;;;;16.15;9.27;;;17.10;99.90;;;;;;4960100;28;20900;-64
2022/10/29 12:19:13;;;;;;;20.65;8.93;;;17.10;99.90;;;;;;4951595;28;20222;-63
2022/10/29 12:21:47;;;;;;;13.88;9.00;;;17.20;99.90;;;;;;4949626;28;20239;-63
2022/10/29 12:24:24;;;;;;;17.65;8.55;;;17.20;99.90;;;;;;4963091;28;20230;-63
2022/10/29 12:27:00;;;;;;;19.77;8.82;;;17.30;99.90;;;;;;4965181;28;20234;-63
2022/10/29 12:29:36;;;;;;;17.85;8.85;;;17.30;99.90;;;;;;4967465;28;20222;-64
2022/10/29 12:32:07;;;;;;;23.77;8.85;;;17.30;99.90;;;;;;4950062;28;20237;-63
2022/10/29 12:34:40;;;;;;;15.23;7.38;;;17.30;99.90;;;;;;4978372;28;20219;-64
2022/10/29 12:37:13;;;;;;;16.38;9.55;;;17.30;99.90;;;;;;4957727;28;20273;-64
2022/10/29 12:39:45;;;;;;;24.17;8.73;;;17.30;99.90;;;;;;4966475;28;20223;-64
2022/10/29 12:42:17;;;;;;;18.25;8.48;;;17.40;99.90;;;;;;4972477;28;20253;-64
2022/10/29 12:44:50;;;;;;;16.73;8.23;;;17.40;99.90;;;;;;4953608;28;20213;-64
2022/10/29 12:47:25;;;;;;;11.30;7.93;;;17.40;99.90;;;;;;4955774;28;20208;-64
2022/10/29 12:50:02;;;;;;;14.02;7.75;;;17.50;99.90;;;;;;4972274;28;20255;-64
2022/10/29 12:52:38;;;;;;;13.15;7.95;;;17.50;99.90;;;;;;4953447;28;20696;-64